Time;durP1;ratioP1;P1;durP2;ratioP2;P2;SDS_P1;SDS_P2;PMS_P1;PMS_P2;Temp;Humidity;BMP_temperature;BMP_pressure;BME280_temperature;BME280_humidity;BME280_pressure;Samples;Min_cycle;Max_cycle;Signal;HPM_P1;HPM_P2
2022/04/26 03:38:28;;;;;;;67.43;33.63;;;6.40;99.90;;;;;;4379265;28;658647;-72
2022/04/26 03:41:17;;;;;;;74.47;33.83;;;6.40;99.90;;;;;;4432373;28;659335;-72
2022/04/26 03:44:04;;;;;;;80.13;34.97;;;6.40;99.90;;;;;;4444998;28;657561;-72
2022/04/26 03:46:51;;;;;;;84.77;36.97;;;6.40;99.90;;;;;;4419153;28;657419;-72
2022/04/26 03:49:38;;;;;;;89.00;36.10;;;6.40;99.90;;;;;;4441981;28;658499;-72
2022/04/26 03:52:25;;;;;;;84.20;35.73;;;6.30;99.90;;;;;;4422620;28;657615;-72
2022/04/26 03:55:13;;;;;;;74.03;34.50;;;6.40;99.90;;;;;;4442022;28;658131;-71
2022/04/26 03:58:02;;;;;;;82.60;37.10;;;6.40;99.90;;;;;;4434121;28;658130;-72
2022/04/26 04:00:49;;;;;;;84.93;36.60;;;6.40;99.90;;;;;;4447970;28;657068;-72
2022/04/26 04:03:38;;;;;;;90.63;37.83;;;6.40;99.90;;;;;;4424069;28;657396;-72
2022/04/26 04:06:25;;;;;;;90.67;38.27;;;6.40;99.90;;;;;;4427626;28;657818;-72
2022/04/26 04:09:12;;;;;;;82.33;36.83;;;6.40;99.90;;;;;;4451095;28;658557;-72
2022/04/26 04:12:00;;;;;;;92.70;37.17;;;6.40;99.90;;;;;;4441822;28;657956;-72
2022/04/26 04:14:48;;;;;;;82.10;36.73;;;6.50;99.90;;;;;;4421026;28;658444;-71
2022/04/26 04:17:35;;;;;;;81.17;34.33;;;6.40;99.90;;;;;;4427778;28;658189;-72
2022/04/26 04:20:23;;;;;;;72.07;35.33;;;6.50;99.90;;;;;;4445942;28;658096;-72
2022/04/26 04:23:10;;;;;;;75.27;34.47;;;6.50;99.90;;;;;;4436600;28;657189;-72
2022/04/26 04:25:57;;;;;;;78.67;34.63;;;6.50;99.90;;;;;;4447264;28;658710;-71
2022/04/26 04:28:44;;;;;;;79.57;35.77;;;6.50;99.90;;;;;;4444769;28;657258;-73
2022/04/26 04:31:33;;;;;;;82.43;36.03;;;6.50;99.90;;;;;;4427111;28;658393;-72
2022/04/26 04:34:20;;;;;;;85.53;35.80;;;6.40;99.90;;;;;;4425584;28;657844;-72
2022/04/26 04:37:08;;;;;;;83.67;36.23;;;6.40;99.90;;;;;;4446651;28;658447;-71
2022/04/26 04:39:55;;;;;;;82.95;35.95;;;6.40;99.90;;;;;;4428957;28;657849;-72
2022/04/26 04:42:42;;;;;;;88.70;37.80;;;6.40;99.90;;;;;;4445557;28;658412;-72
2022/04/26 04:45:30;;;;;;;97.00;38.53;;;6.40;99.90;;;;;;4443763;28;657445;-71
2022/04/26 04:48:19;;;;;;;83.97;36.77;;;6.40;99.90;;;;;;4442795;28;658087;-71
2022/04/26 04:51:07;;;;;;;92.63;38.57;;;6.40;99.90;;;;;;4424680;28;658151;-72
2022/04/26 04:53:54;;;;;;;86.17;37.50;;;6.40;99.90;;;;;;4437597;28;657874;-72
2022/04/26 04:56:42;;;;;;;92.60;38.33;;;6.40;99.90;;;;;;4421095;28;658582;-72
2022/04/26 04:59:29;;;;;;;88.83;36.90;;;6.40;99.90;;;;;;4446059;28;657355;-71
2022/04/26 05:02:16;;;;;;;83.23;36.20;;;6.50;99.90;;;;;;4426072;28;659392;-71
2022/04/26 05:05:06;;;;;;;83.77;36.03;;;6.50;99.90;;;;;;4446357;28;658142;-71
2022/04/26 05:07:53;;;;;;;88.50;35.97;;;6.50;99.90;;;;;;4420190;28;658156;-73
2022/04/26 05:10:41;;;;;;;81.97;34.57;;;6.50;99.90;;;;;;4429790;28;657651;-72
2022/04/26 05:13:28;;;;;;;72.90;33.72;;;6.50;99.90;;;;;;4447534;28;658134;-71
2022/04/26 05:16:15;;;;;;;71.83;33.97;;;6.60;99.90;;;;;;4424642;28;658610;-72
2022/04/26 05:19:03;;;;;;;81.07;35.00;;;6.60;99.90;;;;;;4443293;28;658244;-72
2022/04/26 05:21:52;;;;;;;72.33;33.90;;;6.60;99.90;;;;;;4435599;28;657992;-72
2022/04/26 05:24:53;;;;;;;68.83;32.20;;;6.60;99.90;;;;;;4441644;28;657893;-71
2022/04/26 05:27:40;;;;;;;74.93;33.33;;;6.70;99.90;;;;;;4422176;28;657939;-72
2022/04/26 05:30:28;;;;;;;71.37;32.77;;;6.70;99.90;;;;;;4444917;28;658481;-71
2022/04/26 05:33:15;;;;;;;69.57;33.47;;;6.70;99.90;;;;;;4437396;28;658244;-72
2022/04/26 05:36:03;;;;;;;71.73;33.20;;;6.60;99.90;;;;;;4443301;28;657957;-72
2022/04/26 05:38:52;;;;;;;73.00;33.43;;;6.70;99.90;;;;;;4433564;28;657665;-72
2022/04/26 05:41:39;;;;;;;73.30;32.63;;;6.70;99.90;;;;;;4445194;28;657625;-71
2022/04/26 05:44:26;;;;;;;74.47;33.43;;;6.60;99.90;;;;;;4421022;28;657617;-72
2022/04/26 05:47:13;;;;;;;78.03;36.13;;;6.60;99.90;;;;;;4442312;28;657878;-71
2022/04/26 05:50:00;;;;;;;74.00;32.78;;;6.70;99.90;;;;;;4425243;28;658168;-72
2022/04/26 05:52:47;;;;;;;86.40;35.00;;;6.80;99.90;;;;;;4439349;28;657785;-72
2022/04/26 05:55:36;;;;;;;75.23;34.03;;;6.90;99.90;;;;;;4445495;28;658072;-72
2022/04/26 05:58:23;;;;;;;74.70;33.67;;;7.00;99.90;;;;;;4419965;28;658374;-72
2022/04/26 06:01:10;;;;;;;66.03;31.03;;;7.00;99.90;;;;;;4427819;28;657825;-72
2022/04/26 06:03:58;;;;;;;63.27;28.60;;;7.00;99.90;;;;;;4441139;28;658584;-71
2022/04/26 06:06:45;;;;;;;63.47;30.27;;;6.90;99.90;;;;;;4424326;28;657686;-72
2022/04/26 06:09:32;;;;;;;66.03;31.63;;;7.10;99.90;;;;;;4450953;28;657609;-71
2022/04/26 06:12:23;;;;;;;72.07;31.43;;;7.20;99.90;;;;;;4442860;28;658022;-72
2022/04/26 06:15:10;;;;;;;74.77;31.50;;;7.20;99.90;;;;;;4424561;28;657558;-72
2022/04/26 06:17:57;;;;;;;63.77;29.83;;;7.30;99.90;;;;;;4449989;28;657320;-72
2022/04/26 06:20:45;;;;;;;56.67;28.23;;;7.30;99.90;;;;;;4441902;28;657664;-72
2022/04/26 06:23:32;;;;;;;59.00;29.77;;;7.30;99.90;;;;;;4451309;28;658052;-72
2022/04/26 06:26:19;;;;;;;61.20;29.20;;;7.30;99.90;;;;;;4450864;28;657867;-72
2022/04/26 06:29:08;;;;;;;61.93;28.90;;;7.50;99.90;;;;;;4421444;28;658505;-72
2022/04/26 06:31:55;;;;;;;64.60;30.50;;;7.40;99.90;;;;;;4427117;28;658782;-72
2022/04/26 06:34:42;;;;;;;62.30;29.63;;;7.60;99.90;;;;;;4451015;28;658223;-71
2022/04/26 06:37:30;;;;;;;50.43;25.80;;;7.70;99.90;;;;;;4448985;28;658107;-73
2022/04/26 06:40:17;;;;;;;52.63;26.73;;;7.70;99.90;;;;;;4427120;28;657777;-72
2022/04/26 06:43:05;;;;;;;51.87;26.37;;;7.80;99.90;;;;;;4444640;28;657477;-71
2022/04/26 06:45:53;;;;;;;53.03;27.43;;;7.80;99.90;;;;;;4423705;28;657848;-72
2022/04/26 06:48:41;;;;;;;54.43;28.40;;;7.80;99.90;;;;;;4425062;28;657602;-72
2022/04/26 06:51:30;;;;;;;58.50;30.60;;;7.80;99.90;;;;;;4447654;28;657802;-71
2022/04/26 06:54:17;;;;;;;57.27;27.30;;;7.70;99.90;;;;;;4422116;28;658371;-71
2022/04/26 06:57:05;;;;;;;55.47;28.43;;;7.70;99.90;;;;;;4442873;28;657513;-72
2022/04/26 06:59:52;;;;;;;55.23;27.47;;;7.80;99.90;;;;;;4446943;28;657559;-72
2022/04/26 07:02:41;;;;;;;54.30;24.93;;;7.80;99.90;;;;;;4447140;28;657718;-71
2022/04/26 07:05:28;;;;;;;55.63;27.33;;;7.80;99.90;;;;;;4419975;28;658448;-71
2022/04/26 07:08:15;;;;;;;48.10;25.13;;;8.20;99.90;;;;;;4424089;28;657611;-71
2022/04/26 07:11:02;;;;;;;54.03;25.87;;;8.20;99.90;;;;;;4441811;28;658799;-71
2022/04/26 07:13:52;;;;;;;53.23;26.13;;;8.20;99.90;;;;;;4439519;28;657565;-71
2022/04/26 07:16:40;;;;;;;50.30;26.30;;;8.30;99.90;;;;;;4447632;28;658392;-71
2022/04/26 07:19:30;;;;;;;47.70;25.17;;;8.40;99.90;;;;;;4423523;28;658110;-71
2022/04/26 07:22:17;;;;;;;49.70;24.03;;;8.40;99.90;;;;;;4420535;28;658133;-71
2022/04/26 07:25:05;;;;;;;46.97;25.17;;;8.10;99.90;;;;;;4435832;28;657365;-71
2022/04/26 07:27:53;;;;;;;43.73;23.73;;;8.20;99.90;;;;;;4423353;28;658108;-72
2022/04/26 07:30:41;;;;;;;51.40;25.27;;;8.30;99.90;;;;;;4434387;28;657618;-72
2022/04/26 07:36:34;;;;;;;45.50;25.50;;;8.50;99.90;;;;;;4413665;28;657605;-71
2022/04/26 07:39:22;;;;;;;45.17;24.70;;;8.60;99.90;;;;;;4416895;28;657493;-71
2022/04/26 07:42:10;;;;;;;48.10;24.20;;;8.70;99.90;;;;;;4435076;28;657903;-71
2022/04/26 07:44:57;;;;;;;45.97;24.27;;;8.50;99.90;;;;;;4417296;28;658445;-71
2022/04/26 07:47:45;;;;;;;47.70;26.80;;;8.60;99.90;;;;;;4436990;28;657198;-71
2022/04/26 07:50:32;;;;;;;50.63;25.87;;;8.70;99.90;;;;;;4413435;28;658813;-71
2022/04/26 07:53:21;;;;;;;53.97;25.73;;;8.80;99.90;;;;;;4434681;28;657938;-71
2022/04/26 07:56:09;;;;;;;46.23;24.97;;;8.80;99.90;;;;;;4417267;28;658177;-73
2022/04/26 07:58:58;;;;;;;43.97;24.00;;;9.00;99.90;;;;;;4425212;28;657723;-71
2022/04/26 08:01:45;;;;;;;40.50;23.63;;;8.90;99.90;;;;;;4423763;28;658346;-71
2022/04/26 08:04:32;;;;;;;45.30;24.33;;;8.80;99.90;;;;;;4440853;28;658841;-71
2022/04/26 08:07:19;;;;;;;49.70;25.30;;;8.80;99.90;;;;;;4443748;28;658022;-71
2022/04/26 08:10:10;;;;;;;50.20;25.40;;;8.80;99.90;;;;;;4415571;28;658255;-72
2022/04/26 08:12:57;;;;;;;51.00;27.23;;;8.90;99.90;;;;;;4416667;28;657704;-72
2022/04/26 08:15:44;;;;;;;50.73;25.73;;;9.10;99.90;;;;;;4441754;28;657329;-71
2022/04/26 08:18:31;;;;;;;43.25;23.25;;;9.10;99.90;;;;;;4418098;28;657840;-72
2022/04/26 08:21:18;;;;;;;41.90;23.77;;;9.40;99.90;;;;;;4436943;28;658474;-72
2022/04/26 08:27:25;;;;;;;32.73;18.53;;;9.80;99.90;;;;;;4419406;28;658551;-72
2022/04/26 08:30:12;;;;;;;35.20;20.50;;;9.60;99.90;;;;;;4395466;28;658513;-72
2022/04/26 08:32:59;;;;;;;35.23;20.93;;;9.50;99.90;;;;;;4445231;28;658052;-71
2022/04/26 08:35:47;;;;;;;37.57;21.20;;;10.00;99.90;;;;;;4415969;28;657826;-72
2022/04/26 08:38:35;;;;;;;39.00;21.53;;;9.90;99.90;;;;;;4437942;28;658629;-72
2022/04/26 08:41:22;;;;;;;37.23;20.57;;;9.60;99.90;;;;;;4417091;28;658150;-71
2022/04/26 08:44:11;;;;;;;37.05;21.73;;;9.40;99.90;;;;;;4441738;28;657169;-72
2022/04/26 08:53:09;;;;;;;43.60;21.33;;;9.80;99.90;;;;;;4425054;28;657939;-72
2022/04/26 08:55:56;;;;;;;35.77;21.17;;;9.50;99.90;;;;;;4425696;28;657501;-71
2022/04/26 08:58:44;;;;;;;40.40;21.30;;;9.50;99.90;;;;;;4440516;28;657826;-72
2022/04/26 09:01:33;;;;;;;41.17;22.43;;;9.30;99.90;;;;;;4419708;28;657560;-71
2022/04/26 09:04:21;;;;;;;44.23;24.70;;;9.30;99.90;;;;;;4427419;28;658011;-72
2022/04/26 09:07:10;;;;;;;46.57;24.10;;;9.30;99.90;;;;;;4442092;28;658577;-71
2022/04/26 09:10:05;;;;;;;46.40;23.53;;;9.10;99.90;;;;;;4422601;28;657846;-71
2022/04/26 09:13:06;;;;;;;45.50;22.73;;;9.00;99.90;;;;;;4381490;28;658250;-72
2022/04/26 09:15:55;;;;;;;45.63;23.67;;;9.00;99.90;;;;;;4413579;28;657683;-71
2022/04/26 09:18:54;;;;;;;37.83;20.08;;;9.00;99.90;;;;;;4420842;28;658372;-71
2022/04/26 09:21:53;;;;;;;34.33;18.33;;;8.90;99.90;;;;;;4413058;28;657330;-71
2022/04/26 09:24:54;;;;;;;41.10;22.20;;;8.80;99.90;;;;;;4406634;28;657798;-72
2022/04/26 09:27:42;;;;;;;38.63;21.23;;;9.00;99.90;;;;;;4425355;28;657346;-71
2022/04/26 09:30:29;;;;;;;44.73;22.17;;;9.00;99.90;;;;;;4448790;28;658418;-71
2022/04/26 09:33:32;;;;;;;38.93;21.57;;;9.00;99.90;;;;;;4424108;28;658626;-72
2022/04/26 09:36:24;;;;;;;34.60;16.17;;;9.00;99.90;;;;;;4417488;28;657510;-72
2022/04/26 09:39:11;;;;;;;38.70;21.17;;;9.00;99.90;;;;;;4422608;28;657816;-72
2022/04/26 09:41:58;;;;;;;47.65;21.95;;;8.80;99.90;;;;;;4441126;28;658940;-71
2022/04/26 09:44:48;;;;;;;38.63;21.57;;;8.90;99.90;;;;;;4419850;28;657351;-71
2022/04/26 09:47:39;;;;;;;44.03;22.40;;;9.00;99.90;;;;;;4416419;28;657911;-71
2022/04/26 09:50:27;;;;;;;36.70;20.17;;;8.90;99.90;;;;;;4420142;28;657376;-71
2022/04/26 09:53:17;;;;;;;33.13;17.13;;;8.80;99.90;;;;;;4440456;28;657963;-71
2022/04/26 09:56:05;;;;;;;42.37;23.30;;;8.80;99.90;;;;;;4440727;28;657757;-71
2022/04/26 09:58:53;;;;;;;40.07;16.63;;;9.00;99.90;;;;;;4416990;28;658384;-71
2022/04/26 10:01:42;;;;;;;41.33;22.73;;;8.80;99.90;;;;;;4423372;28;657507;-71
2022/04/26 10:04:31;;;;;;;41.93;21.37;;;8.90;99.90;;;;;;4440931;28;658041;-70
2022/04/26 10:07:19;;;;;;;45.53;15.40;;;8.70;99.90;;;;;;4416707;28;658686;-70
2022/04/26 10:10:09;;;;;;;36.97;20.00;;;8.70;99.90;;;;;;4417540;28;658140;-70
2022/04/26 10:16:01;;;;;;;42.67;21.33;;;8.80;99.90;;;;;;4398476;28;657539;-70
2022/04/26 10:18:49;;;;;;;38.17;20.07;;;8.80;99.90;;;;;;4445292;28;657541;-71
2022/04/26 10:21:49;;;;;;;38.87;21.20;;;8.80;99.90;;;;;;4422275;28;657378;-71
2022/04/26 10:24:38;;;;;;;42.40;20.27;;;8.90;99.90;;;;;;4396834;28;658548;-71
2022/04/26 10:27:27;;;;;;;38.17;20.43;;;8.90;99.90;;;;;;4420893;28;657742;-71
2022/04/26 10:30:15;;;;;;;38.20;20.77;;;8.90;99.90;;;;;;4436613;28;657587;-71
2022/04/26 10:33:03;;;;;;;38.23;21.10;;;9.00;99.90;;;;;;4444640;28;657992;-71
2022/04/26 10:35:50;;;;;;;36.33;20.67;;;8.90;99.90;;;;;;4413202;28;657427;-71
2022/04/26 10:38:37;;;;;;;47.10;22.17;;;8.90;99.90;;;;;;4441535;28;657705;-70
2022/04/26 10:41:34;;;;;;;37.30;18.83;;;9.00;99.90;;;;;;4445270;28;657292;-71
2022/04/26 10:44:27;;;;;;;41.53;21.08;;;8.80;99.90;;;;;;4414438;28;658495;-71
2022/04/26 10:47:36;;;;;;;37.83;20.97;;;9.00;99.90;;;;;;4419013;28;656910;-71
2022/04/26 10:50:31;;;;;;;39.70;21.43;;;9.00;99.90;;;;;;4418851;28;657784;-71
2022/04/26 10:53:45;;;;;;;40.23;21.80;;;9.10;99.90;;;;;;4403751;28;658251;-71
2022/04/26 10:56:32;;;;;;;40.43;20.83;;;9.00;99.90;;;;;;4395055;28;658913;-71
2022/04/26 10:59:19;;;;;;;42.20;21.23;;;8.90;99.90;;;;;;4441858;28;657557;-71
2022/04/26 11:02:08;;;;;;;42.93;20.50;;;8.90;99.90;;;;;;4422171;28;657396;-71
2022/04/26 11:04:59;;;;;;;44.43;22.13;;;8.90;99.90;;;;;;4421240;28;657729;-71
2022/04/26 11:07:46;;;;;;;36.60;20.17;;;9.00;99.90;;;;;;4414335;28;657558;-71
2022/04/26 11:13:39;;;;;;;38.57;20.40;;;9.00;99.90;;;;;;4414625;28;658016;-71
2022/04/26 11:16:26;;;;;;;39.30;21.23;;;9.00;99.90;;;;;;4413480;28;657709;-71
2022/04/26 11:19:14;;;;;;;40.07;21.23;;;9.00;99.90;;;;;;4436914;28;658660;-71
2022/04/26 11:22:04;;;;;;;42.93;21.53;;;8.90;99.90;;;;;;4417364;28;658444;-71
2022/04/26 11:28:12;;;;;;;41.20;21.53;;;9.00;99.90;;;;;;4418084;28;657620;-71
2022/04/26 11:30:59;;;;;;;39.80;21.10;;;9.00;99.90;;;;;;4412995;28;657593;-71
2022/04/26 11:33:49;;;;;;;44.30;22.63;;;9.10;99.90;;;;;;4425773;28;657767;-71
2022/04/26 11:36:39;;;;;;;42.57;23.03;;;9.10;99.90;;;;;;4414230;28;658525;-71
2022/04/26 11:39:26;;;;;;;46.90;23.20;;;9.00;99.90;;;;;;4423549;28;657802;-71
2022/04/26 11:42:13;;;;;;;45.90;22.67;;;9.00;99.90;;;;;;4439945;28;658753;-71
2022/04/26 11:45:01;;;;;;;44.87;23.70;;;9.00;99.90;;;;;;4422954;28;657980;-71
2022/04/26 11:47:49;;;;;;;41.45;22.60;;;8.80;99.90;;;;;;4446451;28;658019;-71
2022/04/26 11:50:36;;;;;;;47.27;23.33;;;8.90;99.90;;;;;;4414889;28;658238;-71
2022/04/26 11:53:25;;;;;;;44.97;23.07;;;8.90;99.90;;;;;;4442623;28;657727;-71
2022/04/26 11:56:17;;;;;;;50.40;23.30;;;8.80;99.90;;;;;;4417372;28;658720;-71
2022/04/26 11:59:05;;;;;;;50.77;24.10;;;8.80;99.90;;;;;;4427257;28;657735;-71
2022/04/26 12:01:53;;;;;;;44.40;23.13;;;8.90;99.90;;;;;;4407861;28;658581;-71
2022/04/26 12:04:41;;;;;;;43.00;22.23;;;8.90;99.90;;;;;;4433665;28;657460;-71
2022/04/26 12:07:28;;;;;;;38.13;19.17;;;9.00;99.90;;;;;;4442738;28;658368;-70
2022/04/26 12:10:30;;;;;;;36.40;18.73;;;8.90;99.90;;;;;;4420713;28;657545;-71
2022/04/26 12:13:30;;;;;;;37.30;18.70;;;8.80;99.90;;;;;;4400547;28;658022;-71
2022/04/26 12:16:18;;;;;;;25.80;14.67;;;8.80;99.90;;;;;;4420091;28;658481;-70
2022/04/26 12:19:06;;;;;;;23.23;12.37;;;8.70;99.90;;;;;;4437386;28;658101;-71
2022/04/26 12:21:54;;;;;;;20.30;11.00;;;8.50;99.90;;;;;;4447496;28;658077;-70
2022/04/26 12:24:48;;;;;;;17.87;10.10;;;8.60;99.90;;;;;;4420944;28;658583;-71
2022/04/26 12:27:37;;;;;;;21.93;12.03;;;8.60;99.90;;;;;;4418915;28;657797;-71
2022/04/26 12:30:24;;;;;;;20.67;11.07;;;8.80;99.90;;;;;;4447837;28;657485;-70
2022/04/26 12:33:12;;;;;;;17.77;9.90;;;8.80;99.90;;;;;;4420356;28;657297;-71
2022/04/26 12:36:01;;;;;;;15.20;8.25;;;9.00;99.90;;;;;;4440998;28;656254;-70
2022/04/26 12:38:50;;;;;;;16.50;8.93;;;9.20;99.90;;;;;;4422077;28;656717;-71
2022/04/26 12:41:47;;;;;;;16.13;9.23;;;9.30;99.90;;;;;;4421194;28;657363;-71
2022/04/26 12:44:37;;;;;;;23.83;10.93;;;9.30;99.90;;;;;;4420876;28;657061;-71
2022/04/26 12:50:31;;;;;;;19.40;9.77;;;9.60;99.90;;;;;;4435926;28;658308;-71
2022/04/26 12:53:22;;;;;;;19.57;9.90;;;9.80;99.90;;;;;;4439548;28;658194;-71
2022/04/26 12:56:10;;;;;;;19.63;10.30;;;9.70;99.90;;;;;;4416260;28;656491;-71
2022/04/26 12:58:57;;;;;;;20.85;10.63;;;9.80;99.90;;;;;;4419163;28;658039;-71
2022/04/26 13:01:46;;;;;;;18.80;9.83;;;9.80;99.90;;;;;;4448382;28;656926;-71
2022/04/26 13:04:33;;;;;;;21.80;9.93;;;9.80;99.90;;;;;;4422270;28;656775;-71
2022/04/26 13:07:20;;;;;;;19.07;10.80;;;9.60;99.90;;;;;;4428041;28;656470;-71
2022/04/26 13:10:08;;;;;;;20.87;10.60;;;9.80;99.90;;;;;;4444307;28;658754;-71
2022/04/26 13:12:55;;;;;;;20.13;10.93;;;9.80;99.90;;;;;;4428798;28;657959;-71
2022/04/26 13:15:43;;;;;;;24.87;11.90;;;9.70;99.90;;;;;;4446995;28;658405;-71
2022/04/26 13:18:32;;;;;;;23.27;12.57;;;9.60;99.90;;;;;;4428782;28;657909;-71
2022/04/26 13:21:19;;;;;;;26.10;12.80;;;9.60;99.90;;;;;;4447031;28;657649;-71
2022/04/26 13:24:07;;;;;;;23.10;12.15;;;9.50;99.90;;;;;;4423954;28;657682;-71
2022/04/26 13:26:54;;;;;;;25.30;13.40;;;9.40;99.90;;;;;;4442492;28;657325;-71
2022/04/26 13:29:41;;;;;;;28.40;14.47;;;9.30;99.90;;;;;;4425771;28;658230;-71
2022/04/26 13:32:29;;;;;;;31.17;14.40;;;9.50;99.90;;;;;;4448811;28;658423;-71
2022/04/26 13:35:18;;;;;;;25.30;13.80;;;9.60;99.90;;;;;;4427102;28;657752;-71
2022/04/26 13:38:08;;;;;;;22.87;11.93;;;9.40;99.90;;;;;;4424269;28;657919;-71
2022/04/26 13:40:56;;;;;;;21.23;12.03;;;9.50;99.90;;;;;;4433028;28;657813;-71
2022/04/26 13:43:43;;;;;;;22.00;12.40;;;9.50;99.90;;;;;;4433657;28;659125;-71
2022/04/26 13:46:30;;;;;;;26.20;13.53;;;9.50;99.90;;;;;;4410118;28;657592;-71
2022/04/26 13:49:18;;;;;;;22.97;12.77;;;9.60;99.90;;;;;;4424417;28;658473;-71
2022/04/26 13:52:07;;;;;;;24.27;13.23;;;9.60;99.90;;;;;;4420758;28;658008;-71
2022/04/26 13:54:54;;;;;;;27.63;14.30;;;9.50;99.90;;;;;;4429114;28;657468;-71
2022/04/26 13:57:41;;;;;;;24.63;12.90;;;9.70;99.90;;;;;;4408024;28;658738;-71
2022/04/26 14:00:30;;;;;;;26.70;12.47;;;9.60;99.90;;;;;;4425882;28;658571;-71
2022/04/26 14:03:17;;;;;;;29.63;14.00;;;9.50;99.90;;;;;;4407428;28;658248;-71
2022/04/26 14:06:04;;;;;;;24.87;14.87;;;9.50;99.90;;;;;;4431245;28;658454;-70
2022/04/26 14:08:53;;;;;;;27.33;15.17;;;9.60;99.90;;;;;;4406499;28;658176;-70
2022/04/26 14:11:40;;;;;;;30.43;15.40;;;9.50;99.90;;;;;;4407318;28;657808;-71
2022/04/26 14:23:42;;;;;;;24.60;13.20;;;9.50;99.90;;;;;;4383121;28;659179;-71
2022/04/26 14:26:31;;;;;;;26.77;12.80;;;9.30;99.90;;;;;;4428545;28;657404;-71
2022/04/26 14:29:18;;;;;;;23.57;12.80;;;9.40;99.90;;;;;;4402797;28;658401;-71
2022/04/26 14:32:07;;;;;;;23.83;12.47;;;9.50;99.90;;;;;;4407902;28;657784;-70
2022/04/26 14:34:54;;;;;;;23.30;12.90;;;9.40;99.90;;;;;;4431992;28;657440;-71
2022/04/26 14:37:42;;;;;;;24.00;12.93;;;9.40;99.90;;;;;;4408926;28;657991;-71
2022/04/26 14:40:29;;;;;;;27.60;12.13;;;9.50;99.90;;;;;;4431403;28;657333;-71
2022/04/26 14:43:18;;;;;;;25.63;12.53;;;9.40;99.90;;;;;;4415829;28;658328;-71
2022/04/26 14:46:05;;;;;;;23.52;12.45;;;9.30;99.90;;;;;;4419503;28;657354;-71
2022/04/26 14:48:54;;;;;;;23.77;12.10;;;9.30;99.90;;;;;;4444349;28;657775;-71
2022/04/26 14:51:41;;;;;;;24.40;11.93;;;9.40;99.90;;;;;;4426183;28;657867;-71
2022/04/26 14:54:29;;;;;;;26.17;12.00;;;9.30;99.90;;;;;;4446469;28;659110;-71
2022/04/26 14:57:17;;;;;;;23.70;12.80;;;9.40;99.90;;;;;;4424762;28;657405;-71
2022/04/26 15:00:07;;;;;;;27.70;12.93;;;9.30;99.90;;;;;;4447688;28;657888;-70
2022/04/26 15:02:55;;;;;;;27.90;12.23;;;9.20;99.90;;;;;;4440247;28;657521;-71
2022/04/26 15:05:42;;;;;;;25.17;13.07;;;9.20;99.90;;;;;;4449193;28;658207;-71
2022/04/26 15:11:34;;;;;;;25.93;13.27;;;9.10;99.90;;;;;;4421909;28;657871;-71
2022/04/26 15:17:28;;;;;;;26.23;13.93;;;9.20;99.90;;;;;;4425053;28;657759;-71
2022/04/26 15:20:16;;;;;;;25.53;13.40;;;9.20;99.90;;;;;;4423679;28;658097;-71
2022/04/26 15:23:04;;;;;;;29.70;15.20;;;9.10;99.90;;;;;;4440602;28;658190;-70
2022/04/26 15:25:53;;;;;;;30.63;15.30;;;9.20;99.90;;;;;;4424614;28;657642;-71
2022/04/26 15:28:41;;;;;;;28.13;13.73;;;9.10;99.90;;;;;;4434645;28;658009;-71
2022/04/26 15:31:28;;;;;;;26.90;14.80;;;9.10;99.90;;;;;;4445173;28;657737;-70
2022/04/26 15:34:17;;;;;;;29.63;14.73;;;9.00;99.90;;;;;;4423690;28;657481;-71
2022/04/26 15:37:04;;;;;;;26.23;14.73;;;9.10;99.90;;;;;;4444103;28;657122;-71
2022/04/26 15:39:52;;;;;;;28.27;14.60;;;9.00;99.90;;;;;;4420945;28;658070;-70
2022/04/26 15:42:40;;;;;;;32.63;15.07;;;9.10;99.90;;;;;;4442920;28;657668;-71
2022/04/26 15:45:27;;;;;;;28.47;14.93;;;9.10;99.90;;;;;;4421858;28;658374;-71
2022/04/26 15:48:14;;;;;;;28.30;14.80;;;8.90;99.90;;;;;;4448814;28;657984;-71
2022/04/26 15:51:03;;;;;;;29.37;14.67;;;8.80;99.90;;;;;;4430576;28;657636;-70
2022/04/26 15:53:50;;;;;;;34.33;14.20;;;8.90;99.90;;;;;;4444587;28;658106;-70
2022/04/26 15:56:37;;;;;;;26.40;13.77;;;8.90;99.90;;;;;;4450252;28;658144;-71
2022/04/26 15:59:25;;;;;;;28.60;14.13;;;8.80;99.90;;;;;;4446389;28;658049;-70
2022/04/26 16:02:13;;;;;;;32.47;14.30;;;8.80;99.90;;;;;;4449119;28;657273;-70
2022/04/26 16:05:00;;;;;;;25.13;13.13;;;8.70;99.90;;;;;;4436417;28;657759;-70
2022/04/26 16:07:49;;;;;;;28.00;14.10;;;8.60;99.90;;;;;;4453127;28;658443;-70
2022/04/26 16:23:05;;;;;;;27.43;13.13;;;8.60;99.90;;;;;;4422594;28;658159;-71
2022/04/26 16:25:53;;;;;;;27.13;13.73;;;8.50;99.90;;;;;;4422166;28;658903;-70
2022/04/26 16:28:40;;;;;;;27.53;14.30;;;8.50;99.90;;;;;;4431010;28;657465;-71
2022/04/26 16:31:29;;;;;;;28.30;14.37;;;8.50;99.90;;;;;;4454608;28;658168;-70
2022/04/26 16:34:16;;;;;;;24.90;14.82;;;8.50;99.90;;;;;;4430796;28;657634;-70
2022/04/26 16:37:04;;;;;;;30.87;17.13;;;8.50;99.90;;;;;;4444351;28;658437;-70
2022/04/26 16:39:52;;;;;;;38.60;19.47;;;8.40;99.90;;;;;;4434778;28;657838;-70
2022/04/26 16:42:40;;;;;;;38.00;19.67;;;8.50;99.90;;;;;;4451743;28;658228;-71
2022/04/26 16:45:27;;;;;;;28.67;15.47;;;8.40;99.90;;;;;;4444115;28;658527;-70
2022/04/26 16:48:15;;;;;;;31.40;14.63;;;8.40;99.90;;;;;;4446739;28;657204;-71
2022/04/26 16:51:02;;;;;;;29.70;14.83;;;8.30;99.90;;;;;;4453904;28;659062;-70
2022/04/26 16:53:49;;;;;;;28.60;13.67;;;8.30;99.90;;;;;;4449698;28;657635;-70
2022/04/26 16:56:38;;;;;;;31.27;13.60;;;8.30;99.90;;;;;;4430492;28;658576;-71
2022/04/26 16:59:26;;;;;;;27.67;14.43;;;8.30;99.90;;;;;;4427477;28;657734;-70
2022/04/26 17:02:14;;;;;;;34.77;16.90;;;8.20;99.90;;;;;;4449886;28;658340;-70
2022/04/26 17:05:08;;;;;;;38.23;17.07;;;8.30;99.90;;;;;;4427285;28;657322;-69
2022/04/26 17:07:56;;;;;;;42.00;19.27;;;8.20;99.90;;;;;;4462425;28;658217;-67
2022/04/26 17:10:43;;;;;;;43.17;19.43;;;8.30;99.90;;;;;;4448514;28;658433;-68
2022/04/26 17:13:32;;;;;;;42.13;19.97;;;8.30;99.90;;;;;;4422595;28;657732;-67
2022/04/26 17:16:20;;;;;;;42.37;17.77;;;8.20;99.90;;;;;;4439352;28;657329;-66
2022/04/26 17:19:07;;;;;;;34.10;17.10;;;8.30;99.90;;;;;;4420330;28;658945;-66
2022/04/26 17:21:56;;;;;;;37.97;17.93;;;8.20;99.90;;;;;;4411130;28;657614;-71
2022/04/26 17:27:49;;;;;;;36.00;17.13;;;8.20;99.90;;;;;;4415719;28;658641;-71
2022/04/26 17:30:38;;;;;;;33.93;17.40;;;8.10;99.90;;;;;;4423551;28;658597;-70
2022/04/26 17:33:26;;;;;;;30.00;16.03;;;8.10;99.90;;;;;;4428263;28;657815;-71
2022/04/26 17:36:13;;;;;;;32.17;15.87;;;8.10;99.90;;;;;;4448817;28;658571;-71
2022/04/26 17:39:00;;;;;;;34.83;15.90;;;8.10;99.90;;;;;;4423233;28;657679;-71
2022/04/26 17:41:49;;;;;;;27.40;14.57;;;8.10;99.90;;;;;;4457524;28;659078;-71
2022/04/26 17:44:36;;;;;;;31.23;15.90;;;8.00;99.90;;;;;;4425164;28;657580;-71
2022/04/26 17:47:25;;;;;;;28.83;14.97;;;8.00;99.90;;;;;;4429740;28;658760;-71
2022/04/26 17:50:12;;;;;;;28.20;15.07;;;7.90;99.90;;;;;;4423208;28;657983;-70
2022/04/26 17:59:08;;;;;;;30.33;16.20;;;7.70;99.90;;;;;;4420556;28;658206;-72
2022/04/26 18:01:56;;;;;;;32.10;16.43;;;7.60;99.90;;;;;;4420969;28;658451;-71
2022/04/26 18:04:44;;;;;;;29.87;15.83;;;7.60;99.90;;;;;;4440922;28;658221;-71
2022/04/26 18:07:31;;;;;;;34.23;17.80;;;7.50;99.90;;;;;;4424451;28;658116;-70
2022/04/26 18:10:18;;;;;;;30.87;15.63;;;7.50;99.90;;;;;;4448070;28;657710;-70
2022/04/26 18:13:06;;;;;;;35.77;16.13;;;7.40;99.90;;;;;;4420516;28;657699;-70
2022/04/26 18:15:55;;;;;;;34.57;16.27;;;7.30;99.90;;;;;;4435687;28;657847;-71
2022/04/26 18:18:43;;;;;;;37.90;17.27;;;7.20;99.90;;;;;;4424657;28;658489;-70
2022/04/26 18:21:32;;;;;;;38.57;19.60;;;7.00;99.90;;;;;;4438286;28;657485;-71
2022/04/26 18:24:20;;;;;;;38.90;21.20;;;6.90;99.90;;;;;;4445781;28;657438;-70
2022/04/26 18:27:07;;;;;;;50.50;24.43;;;6.80;99.90;;;;;;4421096;28;658071;-70
2022/04/26 18:29:55;;;;;;;39.77;21.50;;;6.60;99.90;;;;;;4444565;28;658161;-71
2022/04/26 18:32:42;;;;;;;57.70;26.73;;;6.50;99.90;;;;;;4406791;28;658560;-71
2022/04/26 18:35:29;;;;;;;58.27;26.17;;;6.40;99.90;;;;;;4446168;28;658851;-70
2022/04/26 18:38:18;;;;;;;53.90;24.37;;;6.30;99.90;;;;;;4421833;28;657851;-70
2022/04/26 18:41:06;;;;;;;41.77;21.53;;;6.20;99.90;;;;;;4421786;28;657318;-71
2022/04/26 18:43:55;;;;;;;49.27;22.67;;;5.90;99.90;;;;;;4441212;28;659265;-71
2022/04/26 18:46:42;;;;;;;63.63;30.83;;;5.90;99.90;;;;;;4418688;28;658974;-70
2022/04/26 18:49:33;;;;;;;57.33;26.67;;;5.90;99.90;;;;;;4445794;28;656854;-71
2022/04/26 18:52:20;;;;;;;51.83;24.83;;;5.80;99.90;;;;;;4402497;28;657733;-71
2022/04/26 18:55:09;;;;;;;50.10;24.63;;;5.70;99.90;;;;;;4441797;28;659001;-71